createdAt,value
2022-09-10T00:00:21.000Z,1004.2
2022-09-10T00:01:37.000Z,1004.2
2022-09-10T00:02:54.000Z,1004.2
2022-09-10T00:04:10.000Z,1004.2
2022-09-10T00:05:26.000Z,1004.2
2022-09-10T00:06:42.000Z,1004.1
2022-09-10T00:07:59.000Z,1004.1
2022-09-10T00:09:15.000Z,1004.1
2022-09-10T00:10:31.000Z,1004.1
2022-09-10T00:11:47.000Z,1004.1
2022-09-10T00:13:03.000Z,1004
2022-09-10T00:14:20.000Z,1004.1
2022-09-10T00:15:36.000Z,1004.1
2022-09-10T00:16:51.000Z,1004.1
2022-09-10T00:18:07.000Z,1004.1
2022-09-10T00:19:24.000Z,1004.1
2022-09-10T00:20:40.000Z,1004.1
2022-09-10T00:21:56.000Z,1004
2022-09-10T00:23:12.000Z,1004
2022-09-10T00:24:29.000Z,1003.9
2022-09-10T00:25:45.000Z,1004
2022-09-10T00:27:01.000Z,1004
2022-09-10T00:28:17.000Z,1004
2022-09-10T00:29:34.000Z,1004
2022-09-10T00:30:50.000Z,1004
2022-09-10T00:32:06.000Z,1004.1
2022-09-10T00:34:37.000Z,1004.1
2022-09-10T00:35:54.000Z,1004.1
2022-09-10T00:37:10.000Z,1004.1
2022-09-10T00:38:26.000Z,1004.1
2022-09-10T00:39:42.000Z,1004.1
2022-09-10T00:40:59.000Z,1004.1
2022-09-10T00:42:15.000Z,1004.1
2022-09-10T00:43:31.000Z,1004.1
2022-09-10T00:44:47.000Z,1004.2
2022-09-10T00:46:04.000Z,1004.1
2022-09-10T00:47:20.000Z,1004.1
2022-09-10T00:49:51.000Z,1004.2
2022-09-10T00:51:08.000Z,1004.1
2022-09-10T00:52:24.000Z,1004.2
2022-09-10T00:53:40.000Z,1004.2
2022-09-10T00:54:56.000Z,1004.1
2022-09-10T00:56:12.000Z,1004.2
2022-09-10T00:57:29.000Z,1004.2
2022-09-10T00:58:45.000Z,1004.1
2022-09-10T01:00:01.000Z,1004.2
2022-09-10T01:01:17.000Z,1004.2
2022-09-10T01:02:34.000Z,1004.2
2022-09-10T01:03:50.000Z,1004.2
2022-09-10T01:05:06.000Z,1004.2
2022-09-10T01:06:21.000Z,1004.2
2022-09-10T01:07:38.000Z,1004.2
2022-09-10T01:08:54.000Z,1004.2
2022-09-10T01:10:10.000Z,1004.2
2022-09-10T01:11:26.000Z,1004.1
2022-09-10T01:12:43.000Z,1004.2
2022-09-10T01:13:59.000Z,1004.2
2022-09-10T01:15:15.000Z,1004.2
2022-09-10T01:16:31.000Z,1004.2
2022-09-10T01:17:47.000Z,1004.2
2022-09-10T01:19:04.000Z,1004.2
2022-09-10T01:20:20.000Z,1004.2
2022-09-10T01:21:36.000Z,1004.2
2022-09-10T01:22:51.000Z,1004.2
2022-09-10T01:24:08.000Z,1004.2
2022-09-10T01:25:24.000Z,1004.2
2022-09-10T01:26:40.000Z,1004.2
2022-09-10T01:27:56.000Z,1004.2
2022-09-10T01:29:12.000Z,1004.2
2022-09-10T01:30:28.000Z,1004.2
2022-09-10T01:31:44.000Z,1004.2
2022-09-10T01:33:00.000Z,1004.2
2022-09-10T01:34:17.000Z,1004.3
2022-09-10T01:35:33.000Z,1004.3
2022-09-10T01:36:49.000Z,1004.3
2022-09-10T01:38:05.000Z,1004.3
2022-09-10T01:39:21.000Z,1004.3
2022-09-10T01:40:38.000Z,1004.3
2022-09-10T01:41:54.000Z,1004.3
2022-09-10T01:43:10.000Z,1004.2
2022-09-10T01:44:26.000Z,1004.2
2022-09-10T01:45:42.000Z,1004.3
2022-09-10T01:46:58.000Z,1004.3
2022-09-10T01:48:14.000Z,1004.3
2022-09-10T01:49:30.000Z,1004.3
2022-09-10T01:50:47.000Z,1004.3
2022-09-10T01:52:03.000Z,1004.3
2022-09-10T01:53:19.000Z,1004.3
2022-09-10T01:54:35.000Z,1004.4
2022-09-10T01:55:52.000Z,1004.3
2022-09-10T01:57:08.000Z,1004.3
2022-09-10T01:58:24.000Z,1004.2
2022-09-10T01:59:40.000Z,1004.2
2022-09-10T02:00:56.000Z,1004.3
2022-09-10T02:02:12.000Z,1004.2
2022-09-10T02:03:28.000Z,1004.2
2022-09-10T02:04:44.000Z,1004.3
2022-09-10T02:06:00.000Z,1004.3
2022-09-10T02:07:17.000Z,1004.3
2022-09-10T02:08:33.000Z,1004.3
2022-09-10T02:09:49.000Z,1004.3
2022-09-10T02:11:05.000Z,1004.3
2022-09-10T02:12:22.000Z,1004.2
2022-09-10T02:13:38.000Z,1004.2
2022-09-10T02:14:54.000Z,1004.3
2022-09-10T02:16:10.000Z,1004.3
2022-09-10T02:17:26.000Z,1004.4
2022-09-10T02:18:42.000Z,1004.3
2022-09-10T02:19:58.000Z,1004.3
2022-09-10T02:21:14.000Z,1004.3
2022-09-10T02:22:30.000Z,1004.3
2022-09-10T02:23:47.000Z,1004.4
2022-09-10T02:25:03.000Z,1004.4
2022-09-10T02:26:19.000Z,1004.3
2022-09-10T02:27:35.000Z,1004.3
2022-09-10T02:28:52.000Z,1004.4
2022-09-10T02:30:08.000Z,1004.3
2022-09-10T02:31:24.000Z,1004.2
2022-09-10T02:32:40.000Z,1004.3
2022-09-10T02:33:57.000Z,1004.3
2022-09-10T02:35:12.000Z,1004.3
2022-09-10T02:36:28.000Z,1004.4
2022-09-10T02:37:44.000Z,1004.4
2022-09-10T02:39:00.000Z,1004.3
2022-09-10T02:40:17.000Z,1004.4
2022-09-10T02:41:33.000Z,1004.4
2022-09-10T02:42:49.000Z,1004.4
2022-09-10T02:44:05.000Z,1004.4
2022-09-10T02:45:22.000Z,1004.4
2022-09-10T02:46:38.000Z,1004.5
2022-09-10T02:47:54.000Z,1004.4
2022-09-10T02:49:10.000Z,1004.4
2022-09-10T02:50:27.000Z,1004.4
2022-09-10T02:51:43.000Z,1004.4
2022-09-10T02:52:58.000Z,1004.4
2022-09-10T02:54:14.000Z,1004.4
2022-09-10T02:55:31.000Z,1004.5
2022-09-10T02:56:47.000Z,1004.4
2022-09-10T02:58:03.000Z,1004.5
2022-09-10T02:59:19.000Z,1004.3
2022-09-10T03:00:35.000Z,1004.4
2022-09-10T03:01:52.000Z,1004.4
2022-09-10T03:03:08.000Z,1004.4
2022-09-10T03:04:24.000Z,1004.4
2022-09-10T03:05:40.000Z,1004.4
2022-09-10T03:06:57.000Z,1004.5
2022-09-10T03:08:13.000Z,1004.4
2022-09-10T03:09:28.000Z,1004.4
2022-09-10T03:10:44.000Z,1004.4
2022-09-10T03:12:01.000Z,1004.3
2022-09-10T03:13:17.000Z,1004.4
2022-09-10T03:14:33.000Z,1004.4
2022-09-10T03:15:49.000Z,1004.5
2022-09-10T03:17:06.000Z,1004.4
2022-09-10T03:18:22.000Z,1004.4
2022-09-10T03:19:38.000Z,1004.4
2022-09-10T03:20:54.000Z,1004.4
2022-09-10T03:22:10.000Z,1004.4
2022-09-10T03:23:27.000Z,1004.5
2022-09-10T03:24:43.000Z,1004.3
2022-09-10T03:25:58.000Z,1004.4
2022-09-10T03:27:14.000Z,1004.4
2022-09-10T03:28:31.000Z,1004.3
2022-09-10T03:29:47.000Z,1004.4
2022-09-10T03:31:03.000Z,1004.3
2022-09-10T03:32:19.000Z,1004.3
2022-09-10T03:33:36.000Z,1004.5
2022-09-10T03:34:52.000Z,1004.4
2022-09-10T03:36:08.000Z,1004.4
2022-09-10T03:37:24.000Z,1004.4
2022-09-10T03:38:40.000Z,1004.3
2022-09-10T03:39:57.000Z,1004.3
2022-09-10T03:41:13.000Z,1004.3
2022-09-10T03:42:28.000Z,1004.3
2022-09-10T03:43:44.000Z,1004.4
2022-09-10T03:45:01.000Z,1004.3
2022-09-10T03:46:17.000Z,1004.3
2022-09-10T03:47:33.000Z,1004.3
2022-09-10T03:48:49.000Z,1004.3
2022-09-10T03:51:22.000Z,1004.4
2022-09-10T03:52:38.000Z,1004.4
2022-09-10T03:53:54.000Z,1004.4
2022-09-10T03:55:11.000Z,1004.4
2022-09-10T03:56:27.000Z,1004.4
2022-09-10T03:57:43.000Z,1004.4
2022-09-10T03:58:58.000Z,1004.5
2022-09-10T04:00:14.000Z,1004.4
2022-09-10T04:01:31.000Z,1004.5
2022-09-10T04:02:47.000Z,1004.4
2022-09-10T04:04:03.000Z,1004.4
2022-09-10T04:05:19.000Z,1004.4
2022-09-10T04:06:36.000Z,1004.4
2022-09-10T04:07:52.000Z,1004.4
2022-09-10T04:09:08.000Z,1004.5
2022-09-10T04:10:24.000Z,1004.4
2022-09-10T04:11:41.000Z,1004.4
2022-09-10T04:12:57.000Z,1004.4
2022-09-10T04:14:13.000Z,1004.4
2022-09-10T04:15:28.000Z,1004.4
2022-09-10T04:16:45.000Z,1004.4
2022-09-10T04:18:01.000Z,1004.4
2022-09-10T04:19:17.000Z,1004.4
2022-09-10T04:20:33.000Z,1004.4
2022-09-10T04:21:49.000Z,1004.4
2022-09-10T04:23:06.000Z,1004.3
2022-09-10T04:24:22.000Z,1004.4
2022-09-10T04:25:38.000Z,1004.4
2022-09-10T04:26:54.000Z,1004.4
2022-09-10T04:28:11.000Z,1004.4
2022-09-10T04:29:27.000Z,1004.4
2022-09-10T04:30:43.000Z,1004.4
2022-09-10T04:31:58.000Z,1004.4
2022-09-10T04:33:15.000Z,1004.4
2022-09-10T04:34:31.000Z,1004.5
2022-09-10T04:35:47.000Z,1004.5
2022-09-10T04:37:03.000Z,1004.5
2022-09-10T04:38:20.000Z,1004.5
2022-09-10T04:39:36.000Z,1004.5
2022-09-10T04:40:52.000Z,1004.4
2022-09-10T04:42:08.000Z,1004.5
2022-09-10T04:43:24.000Z,1004.5
2022-09-10T04:44:41.000Z,1004.5
2022-09-10T04:45:57.000Z,1004.4
2022-09-10T04:47:13.000Z,1004.5
2022-09-10T04:48:28.000Z,1004.5
2022-09-10T04:49:45.000Z,1004.4
2022-09-10T04:51:01.000Z,1004.5
2022-09-10T04:52:17.000Z,1004.5
2022-09-10T04:53:33.000Z,1004.4
2022-09-10T04:54:50.000Z,1004.5
2022-09-10T04:56:06.000Z,1004.5
2022-09-10T04:57:22.000Z,1004.5
2022-09-10T04:58:38.000Z,1004.5
2022-09-10T04:59:54.000Z,1004.5
2022-09-10T05:01:11.000Z,1004.5
2022-09-10T05:02:27.000Z,1004.5
2022-09-10T05:03:43.000Z,1004.5
2022-09-10T05:04:58.000Z,1004.5
2022-09-10T05:06:15.000Z,1004.5
2022-09-10T05:07:31.000Z,1004.6
2022-09-10T05:08:47.000Z,1004.6
2022-09-10T05:10:03.000Z,1004.5
2022-09-10T05:11:20.000Z,1004.5
2022-09-10T05:12:36.000Z,1004.5
2022-09-10T05:13:52.000Z,1004.5
2022-09-10T05:15:08.000Z,1004.5
2022-09-10T05:16:25.000Z,1004.5
2022-09-10T05:17:41.000Z,1004.6
2022-09-10T05:18:57.000Z,1004.5
2022-09-10T05:20:13.000Z,1004.5
2022-09-10T05:21:28.000Z,1004.5
2022-09-10T05:22:45.000Z,1004.5
2022-09-10T05:24:01.000Z,1004.5
2022-09-10T05:25:17.000Z,1004.6
2022-09-10T05:26:33.000Z,1004.5
2022-09-10T05:27:50.000Z,1004.6
2022-09-10T05:29:06.000Z,1004.6
2022-09-10T05:30:22.000Z,1004.6
2022-09-10T05:31:38.000Z,1004.6
2022-09-10T05:32:55.000Z,1004.6
2022-09-10T05:34:11.000Z,1004.7
2022-09-10T05:35:27.000Z,1004.7
2022-09-10T05:36:43.000Z,1004.7
2022-09-10T05:37:59.000Z,1004.7
2022-09-10T05:39:15.000Z,1004.7
2022-09-10T05:40:31.000Z,1004.7
2022-09-10T05:41:47.000Z,1004.7
2022-09-10T05:43:03.000Z,1004.7
2022-09-10T05:44:19.000Z,1004.8
2022-09-10T05:45:35.000Z,1004.7
2022-09-10T05:46:50.000Z,1004.7
2022-09-10T05:48:05.000Z,1004.7
2022-09-10T05:49:21.000Z,1004.7
2022-09-10T05:50:36.000Z,1004.7
2022-09-10T05:51:52.000Z,1004.7
2022-09-10T05:53:08.000Z,1004.7
2022-09-10T05:54:25.000Z,1004.7
2022-09-10T05:55:41.000Z,1004.7
2022-09-10T05:56:57.000Z,1004.8
2022-09-10T05:58:13.000Z,1004.8
2022-09-10T05:59:30.000Z,1004.8
2022-09-10T06:00:46.000Z,1004.8
2022-09-10T06:02:02.000Z,1004.8
2022-09-10T06:03:18.000Z,1004.8
2022-09-10T06:04:35.000Z,1004.8
2022-09-10T06:05:51.000Z,1004.8
2022-09-10T06:07:06.000Z,1004.8
2022-09-10T06:08:22.000Z,1004.8
2022-09-10T06:09:39.000Z,1004.9
2022-09-10T06:10:55.000Z,1004.9
2022-09-10T06:12:11.000Z,1004.9
2022-09-10T06:13:27.000Z,1005
2022-09-10T06:14:43.000Z,1005
2022-09-10T06:16:00.000Z,1005
2022-09-10T06:17:16.000Z,1004.8
2022-09-10T06:18:32.000Z,1004.8
2022-09-10T06:19:48.000Z,1004.8
2022-09-10T06:21:05.000Z,1004.9
2022-09-10T06:22:21.000Z,1004.9
2022-09-10T06:23:36.000Z,1005
2022-09-10T06:24:52.000Z,1004.9
2022-09-10T06:26:09.000Z,1005
2022-09-10T06:27:25.000Z,1005
2022-09-10T06:28:41.000Z,1005
2022-09-10T06:29:57.000Z,1005
2022-09-10T06:31:13.000Z,1005
2022-09-10T06:32:30.000Z,1005
2022-09-10T06:33:46.000Z,1005
2022-09-10T06:35:02.000Z,1004.9
2022-09-10T06:36:18.000Z,1005
2022-09-10T06:37:35.000Z,1005
2022-09-10T06:38:51.000Z,1005
2022-09-10T06:40:06.000Z,1005
2022-09-10T06:41:22.000Z,1005
2022-09-10T06:42:39.000Z,1005
2022-09-10T06:43:55.000Z,1005
2022-09-10T06:45:11.000Z,1005
2022-09-10T06:46:27.000Z,1005.1
2022-09-10T06:47:44.000Z,1005
2022-09-10T06:49:00.000Z,1005.1
2022-09-10T06:50:16.000Z,1005.1
2022-09-10T06:51:32.000Z,1005.1
2022-09-10T06:52:48.000Z,1005.1
2022-09-10T06:54:05.000Z,1005.2
2022-09-10T06:55:21.000Z,1005.2
2022-09-10T06:56:36.000Z,1005.1
2022-09-10T06:57:52.000Z,1005.2
2022-09-10T06:59:09.000Z,1005.2
2022-09-10T07:00:25.000Z,1005.2
2022-09-10T07:01:41.000Z,1005.2
2022-09-10T07:02:56.000Z,1005.1
2022-09-10T07:04:12.000Z,1005.2
2022-09-10T07:05:28.000Z,1005.2
2022-09-10T07:06:44.000Z,1005.2
2022-09-10T07:08:00.000Z,1005.2
2022-09-10T07:09:17.000Z,1005.2
2022-09-10T07:10:32.000Z,1005.2
2022-09-10T07:11:47.000Z,1005.2
2022-09-10T07:13:03.000Z,1005.2
2022-09-10T07:14:20.000Z,1005.2
2022-09-10T07:15:36.000Z,1005.2
2022-09-10T07:16:52.000Z,1005.3
2022-09-10T07:18:08.000Z,1005.2
2022-09-10T07:19:24.000Z,1005.3
2022-09-10T07:20:41.000Z,1005.3
2022-09-10T07:21:57.000Z,1005.2
2022-09-10T07:23:13.000Z,1005.3
2022-09-10T07:24:29.000Z,1005.2
2022-09-10T07:25:46.000Z,1005.3
2022-09-10T07:27:02.000Z,1005.3
2022-09-10T07:28:17.000Z,1005.2
2022-09-10T07:29:33.000Z,1005.4
2022-09-10T07:30:50.000Z,1005.4
2022-09-10T07:32:06.000Z,1005.4
2022-09-10T07:33:22.000Z,1005.3
2022-09-10T07:34:38.000Z,1005.3
2022-09-10T07:35:55.000Z,1005.4
2022-09-10T07:38:27.000Z,1005.4
2022-09-10T07:39:43.000Z,1005.5
2022-09-10T07:40:59.000Z,1005.4
2022-09-10T07:42:16.000Z,1005.4
2022-09-10T07:43:32.000Z,1005.4
2022-09-10T07:44:47.000Z,1005.4
2022-09-10T07:46:03.000Z,1005.4
2022-09-10T07:47:20.000Z,1005.5
2022-09-10T07:48:36.000Z,1005.4
2022-09-10T07:49:52.000Z,1005.2
2022-09-10T07:51:08.000Z,1005.2
2022-09-10T07:52:25.000Z,1005.2
2022-09-10T07:53:41.000Z,1005.3
2022-09-10T07:54:57.000Z,1005.3
2022-09-10T07:56:13.000Z,1005.3
2022-09-10T07:57:30.000Z,1005.4
2022-09-10T07:58:46.000Z,1005.3
2022-09-10T08:00:02.000Z,1005.3
2022-09-10T08:01:17.000Z,1005.3
2022-09-10T08:02:33.000Z,1005.2
2022-09-10T08:03:50.000Z,1005.2
2022-09-10T08:05:06.000Z,1005.3
2022-09-10T08:06:22.000Z,1005.4
2022-09-10T08:07:38.000Z,1005.5
2022-09-10T08:08:55.000Z,1005.5
2022-09-10T08:10:11.000Z,1005.6
2022-09-10T08:11:27.000Z,1005.6
2022-09-10T08:12:43.000Z,1005.4
2022-09-10T08:14:00.000Z,1005.5
2022-09-10T08:15:16.000Z,1005.3
2022-09-10T08:16:32.000Z,1005.5
2022-09-10T08:17:47.000Z,1005.4
2022-09-10T08:19:03.000Z,1005.4
2022-09-10T08:20:19.000Z,1005.3
2022-09-10T08:21:34.000Z,1005.3
2022-09-10T08:22:49.000Z,1005.5
2022-09-10T08:24:06.000Z,1005.5
2022-09-10T08:25:22.000Z,1005.4
2022-09-10T08:26:38.000Z,1005.5
2022-09-10T08:27:54.000Z,1005.5
2022-09-10T08:29:10.000Z,1005.3
2022-09-10T08:30:27.000Z,1005.2
2022-09-10T08:31:43.000Z,1005.2
2022-09-10T08:32:59.000Z,1005.3
2022-09-10T08:34:15.000Z,1005.4
2022-09-10T08:35:32.000Z,1005.4
2022-09-10T08:36:48.000Z,1005.5
2022-09-10T08:38:04.000Z,1005.8
2022-09-10T08:39:19.000Z,1005.9
2022-09-10T08:40:36.000Z,1005.7
2022-09-10T08:41:52.000Z,1005.6
2022-09-10T08:43:08.000Z,1005.8
2022-09-10T08:44:24.000Z,1005.6
2022-09-10T08:45:41.000Z,1005.8
2022-09-10T08:46:57.000Z,1005.7
2022-09-10T08:48:13.000Z,1005.5
2022-09-10T08:49:29.000Z,1005.4
2022-09-10T08:50:45.000Z,1005.6
2022-09-10T08:52:02.000Z,1005.6
2022-09-10T08:53:18.000Z,1005.5
2022-09-10T08:54:34.000Z,1005.4
2022-09-10T08:55:49.000Z,1005.5
2022-09-10T08:57:06.000Z,1005.8
2022-09-10T08:58:22.000Z,1006.1
2022-09-10T08:59:38.000Z,1006.2
2022-09-10T09:00:54.000Z,1006
2022-09-10T09:02:11.000Z,1005.9
2022-09-10T09:03:27.000Z,1005.8
2022-09-10T09:04:43.000Z,1005.7
2022-09-10T09:05:59.000Z,1005.7
2022-09-10T09:07:15.000Z,1005.6
2022-09-10T09:08:32.000Z,1006
2022-09-10T09:09:48.000Z,1006
2022-09-10T09:11:04.000Z,1006.2
2022-09-10T09:12:19.000Z,1006.4
2022-09-10T09:13:36.000Z,1006.2
2022-09-10T09:14:52.000Z,1006
2022-09-10T09:16:08.000Z,1005.7
2022-09-10T09:17:24.000Z,1005.7
2022-09-10T09:18:41.000Z,1005.5
2022-09-10T09:19:57.000Z,1005.7
2022-09-10T09:21:13.000Z,1005.6
2022-09-10T09:22:29.000Z,1005.4
2022-09-10T09:23:46.000Z,1005.5
2022-09-10T09:25:02.000Z,1005.4
2022-09-10T09:26:18.000Z,1005.5
2022-09-10T09:27:34.000Z,1005.4
2022-09-10T09:28:49.000Z,1005.5
2022-09-10T09:30:06.000Z,1005.4
2022-09-10T09:31:22.000Z,1005.2
2022-09-10T09:32:38.000Z,1005
2022-09-10T09:33:54.000Z,1005.1
2022-09-10T09:35:11.000Z,1005.4
2022-09-10T09:36:27.000Z,1005.5
2022-09-10T09:37:43.000Z,1005.5
2022-09-10T09:38:59.000Z,1005.5
2022-09-10T09:40:16.000Z,1005.8
2022-09-10T09:41:32.000Z,1005.8
2022-09-10T09:42:48.000Z,1005.8
2022-09-10T09:44:04.000Z,1005.9
2022-09-10T09:45:20.000Z,1005.5
2022-09-10T09:46:36.000Z,1005.5
2022-09-10T09:47:52.000Z,1005.8
2022-09-10T09:49:08.000Z,1005.7
2022-09-10T09:50:24.000Z,1005.6
2022-09-10T09:51:41.000Z,1005.7
2022-09-10T09:52:57.000Z,1006.1
2022-09-10T09:54:13.000Z,1006.1
2022-09-10T09:55:29.000Z,1005.6
2022-09-10T09:56:46.000Z,1005.4
2022-09-10T09:58:02.000Z,1005.4
2022-09-10T09:59:18.000Z,1005.5
2022-09-10T10:00:34.000Z,1005.7
2022-09-10T10:01:50.000Z,1005.4
2022-09-10T10:03:06.000Z,1005.4
2022-09-10T10:04:22.000Z,1005.4
2022-09-10T10:05:38.000Z,1005.4
2022-09-10T10:06:55.000Z,1005.4
2022-09-10T10:08:11.000Z,1005.4
2022-09-10T10:09:27.000Z,1005.4
2022-09-10T10:10:43.000Z,1005.4
2022-09-10T10:11:59.000Z,1005.4
2022-09-10T10:13:16.000Z,1005.4
2022-09-10T10:14:32.000Z,1005.4
2022-09-10T10:15:48.000Z,1005.4
2022-09-10T10:17:04.000Z,1005.3
2022-09-10T10:18:20.000Z,1005.4
2022-09-10T10:19:36.000Z,1005.4
2022-09-10T10:20:52.000Z,1005.4
2022-09-10T10:22:08.000Z,1005.4
2022-09-10T10:23:25.000Z,1005.5
2022-09-10T10:24:41.000Z,1005.4
2022-09-10T10:25:57.000Z,1005.4
2022-09-10T10:27:13.000Z,1005.4
2022-09-10T10:28:30.000Z,1005.4
2022-09-10T10:29:46.000Z,1005.3
2022-09-10T10:31:02.000Z,1005.3
2022-09-10T10:32:18.000Z,1005.3
2022-09-10T10:33:34.000Z,1005.4
2022-09-10T10:34:50.000Z,1005.4
2022-09-10T10:36:06.000Z,1005.4
2022-09-10T10:37:22.000Z,1005.3
2022-09-10T10:38:38.000Z,1005.4
2022-09-10T10:39:55.000Z,1005.4
2022-09-10T10:41:11.000Z,1005.4
2022-09-10T10:42:27.000Z,1005.4
2022-09-10T10:43:43.000Z,1005.4
2022-09-10T10:45:00.000Z,1005.4
2022-09-10T10:46:16.000Z,1005.4
2022-09-10T10:47:32.000Z,1005.5
2022-09-10T10:48:48.000Z,1005.4
2022-09-10T10:50:05.000Z,1005.4
2022-09-10T10:51:20.000Z,1005.4
2022-09-10T10:52:36.000Z,1005.4
2022-09-10T10:53:52.000Z,1005.4
2022-09-10T10:55:08.000Z,1005.3
2022-09-10T10:56:25.000Z,1005.4
2022-09-10T10:57:41.000Z,1005.4
2022-09-10T10:58:57.000Z,1005.3
2022-09-10T11:00:13.000Z,1005.3
2022-09-10T11:01:30.000Z,1005.4
2022-09-10T11:02:46.000Z,1005.3
2022-09-10T11:04:02.000Z,1005.4
2022-09-10T11:05:18.000Z,1005.4
2022-09-10T11:06:35.000Z,1005.4
2022-09-10T11:07:50.000Z,1005.3
2022-09-10T11:09:06.000Z,1005.3
2022-09-10T11:10:22.000Z,1005.3
2022-09-10T11:11:38.000Z,1005.2
2022-09-10T11:12:55.000Z,1005.2
2022-09-10T11:14:11.000Z,1005.2
2022-09-10T11:15:27.000Z,1005.3
2022-09-10T11:16:43.000Z,1005.2
2022-09-10T11:18:00.000Z,1005.2
2022-09-10T11:19:16.000Z,1005.3
2022-09-10T11:20:32.000Z,1005.3
2022-09-10T11:21:48.000Z,1005.3
2022-09-10T11:23:05.000Z,1005.3
2022-09-10T11:24:20.000Z,1005.4
2022-09-10T11:25:36.000Z,1005.4
2022-09-10T11:26:52.000Z,1005.4
2022-09-10T11:28:09.000Z,1005.3
2022-09-10T11:29:25.000Z,1005.3
2022-09-10T11:30:41.000Z,1005.4
2022-09-10T11:31:57.000Z,1005.3
2022-09-10T11:33:13.000Z,1005.3
2022-09-10T11:34:30.000Z,1005.4
2022-09-10T11:35:46.000Z,1005.4
2022-09-10T11:37:02.000Z,1005.4
2022-09-10T11:38:18.000Z,1005.4
2022-09-10T11:39:35.000Z,1005.4
2022-09-10T11:40:50.000Z,1005.4
2022-09-10T11:42:06.000Z,1005.4
2022-09-10T11:43:22.000Z,1005.4
2022-09-10T11:44:39.000Z,1005.3
2022-09-10T11:45:55.000Z,1005.3
2022-09-10T11:47:11.000Z,1005.4
2022-09-10T11:48:27.000Z,1005.4
2022-09-10T11:49:44.000Z,1005.3
2022-09-10T11:51:00.000Z,1005.4
2022-09-10T11:52:16.000Z,1005.3
2022-09-10T11:53:32.000Z,1005.3
2022-09-10T11:54:48.000Z,1005.3
2022-09-10T11:56:05.000Z,1005.3
2022-09-10T11:57:20.000Z,1005.2
2022-09-10T11:58:36.000Z,1005.3
2022-09-10T11:59:52.000Z,1005.2
2022-09-10T12:01:09.000Z,1005.2
2022-09-10T12:02:25.000Z,1005.2
2022-09-10T12:03:41.000Z,1005.2
2022-09-10T12:04:57.000Z,1005.2
2022-09-10T12:06:14.000Z,1005.2
2022-09-10T12:07:30.000Z,1005.1
2022-09-10T12:08:46.000Z,1005.1
2022-09-10T12:10:02.000Z,1005.1
2022-09-10T12:11:19.000Z,1005.2
2022-09-10T12:12:35.000Z,1005.1
2022-09-10T12:13:50.000Z,1005.1
2022-09-10T12:15:06.000Z,1005.1
2022-09-10T12:16:22.000Z,1005.1
2022-09-10T12:17:39.000Z,1005.1
2022-09-10T12:18:55.000Z,1005.1
2022-09-10T12:20:11.000Z,1005.2
2022-09-10T12:21:27.000Z,1005.2
2022-09-10T12:22:44.000Z,1005.2
2022-09-10T12:24:00.000Z,1005.2
2022-09-10T12:25:16.000Z,1005.2
2022-09-10T12:26:32.000Z,1005.2
2022-09-10T12:27:49.000Z,1005.2
2022-09-10T12:29:05.000Z,1005.2
2022-09-10T12:30:20.000Z,1005.2
2022-09-10T12:31:36.000Z,1005.2
2022-09-10T12:32:53.000Z,1005.2
2022-09-10T12:34:09.000Z,1005.3
2022-09-10T12:35:25.000Z,1005.3
2022-09-10T12:36:41.000Z,1005.2
2022-09-10T12:37:57.000Z,1005.3
2022-09-10T12:39:14.000Z,1005.3
2022-09-10T12:40:30.000Z,1005.3
2022-09-10T12:41:46.000Z,1005.3
2022-09-10T12:43:02.000Z,1005.3
2022-09-10T12:44:19.000Z,1005.3
2022-09-10T12:45:35.000Z,1005.3
2022-09-10T12:46:50.000Z,1005.4
2022-09-10T12:48:06.000Z,1005.4
2022-09-10T12:49:23.000Z,1005.3
2022-09-10T12:50:39.000Z,1005.4
2022-09-10T12:51:55.000Z,1005.4
2022-09-10T12:53:11.000Z,1005.4
2022-09-10T12:54:28.000Z,1005.4
2022-09-10T12:55:44.000Z,1005.4
2022-09-10T12:57:00.000Z,1005.4
2022-09-10T12:58:16.000Z,1005.4
2022-09-10T12:59:32.000Z,1005.4
2022-09-10T13:00:49.000Z,1005.4
2022-09-10T13:02:05.000Z,1005.4
2022-09-10T13:03:20.000Z,1005.5
2022-09-10T13:04:36.000Z,1005.5
2022-09-10T13:05:53.000Z,1005.4
2022-09-10T13:07:09.000Z,1005.5
2022-09-10T13:08:25.000Z,1005.4
2022-09-10T13:09:41.000Z,1005.4
2022-09-10T13:10:58.000Z,1005.4
2022-09-10T13:12:14.000Z,1005.5
2022-09-10T13:13:30.000Z,1005.5
2022-09-10T13:14:46.000Z,1005.5
2022-09-10T13:16:03.000Z,1005.5
2022-09-10T13:17:19.000Z,1005.5
2022-09-10T13:18:35.000Z,1005.5
2022-09-10T13:19:50.000Z,1005.5
2022-09-10T13:21:06.000Z,1005.5
2022-09-10T13:22:22.000Z,1005.5
2022-09-10T13:23:37.000Z,1005.5
2022-09-10T13:24:52.000Z,1005.5
2022-09-10T13:26:07.000Z,1005.5
2022-09-10T13:27:24.000Z,1005.6
2022-09-10T13:28:40.000Z,1005.5
2022-09-10T13:29:56.000Z,1005.5
2022-09-10T13:31:12.000Z,1005.4
2022-09-10T13:32:29.000Z,1005.4
2022-09-10T13:33:45.000Z,1005.3
2022-09-10T13:35:01.000Z,1005.4
2022-09-10T13:36:17.000Z,1005.4
2022-09-10T13:37:34.000Z,1005.4
2022-09-10T13:38:50.000Z,1005.4
2022-09-10T13:40:06.000Z,1005.3
2022-09-10T13:41:22.000Z,1005.4
2022-09-10T13:42:38.000Z,1005.4
2022-09-10T13:43:54.000Z,1005.4
2022-09-10T13:45:10.000Z,1005.3
2022-09-10T13:46:26.000Z,1005.3
2022-09-10T13:47:42.000Z,1005.4
2022-09-10T13:48:59.000Z,1005.4
2022-09-10T13:50:15.000Z,1005.4
2022-09-10T13:51:31.000Z,1005.4
2022-09-10T13:52:47.000Z,1005.4
2022-09-10T13:54:04.000Z,1005.4
2022-09-10T13:55:20.000Z,1005.5
2022-09-10T13:56:36.000Z,1005.4
2022-09-10T13:57:52.000Z,1005.4
2022-09-10T13:59:08.000Z,1005.4
2022-09-10T14:00:24.000Z,1005.4
2022-09-10T14:01:40.000Z,1005.4
2022-09-10T14:02:56.000Z,1005.4
2022-09-10T14:04:13.000Z,1005.4
2022-09-10T14:05:29.000Z,1005.4
2022-09-10T14:06:45.000Z,1005.4
2022-09-10T14:08:01.000Z,1005.4
2022-09-10T14:09:17.000Z,1005.5
2022-09-10T14:10:34.000Z,1005.5
2022-09-10T14:11:50.000Z,1005.5
2022-09-10T14:13:06.000Z,1005.4
2022-09-10T14:14:22.000Z,1005.5
2022-09-10T14:15:39.000Z,1005.5
2022-09-10T14:16:54.000Z,1005.5
2022-09-10T14:18:10.000Z,1005.5
2022-09-10T14:19:26.000Z,1005.5
2022-09-10T14:20:43.000Z,1005.5
2022-09-10T14:21:59.000Z,1005.5
2022-09-10T14:23:15.000Z,1005.6
2022-09-10T14:24:31.000Z,1005.6
2022-09-10T14:25:48.000Z,1005.5
2022-09-10T14:27:04.000Z,1005.6
2022-09-10T14:28:20.000Z,1005.6
2022-09-10T14:29:36.000Z,1005.5
2022-09-10T14:30:52.000Z,1005.5
2022-09-10T14:32:09.000Z,1005.5
2022-09-10T14:33:24.000Z,1005.5
2022-09-10T14:34:40.000Z,1005.5
2022-09-10T14:35:56.000Z,1005.4
2022-09-10T14:37:13.000Z,1005.5
2022-09-10T14:38:29.000Z,1005.4
2022-09-10T14:39:45.000Z,1005.4
2022-09-10T14:41:01.000Z,1005.4
2022-09-10T14:42:18.000Z,1005.4
2022-09-10T14:43:34.000Z,1005.4
2022-09-10T14:44:50.000Z,1005.5
2022-09-10T14:46:06.000Z,1005.4
2022-09-10T14:47:23.000Z,1005.4
2022-09-10T14:48:39.000Z,1005.4
2022-09-10T14:49:54.000Z,1005.4
2022-09-10T14:51:10.000Z,1005.4
2022-09-10T14:52:26.000Z,1005.5
2022-09-10T14:53:43.000Z,1005.5
2022-09-10T14:54:59.000Z,1005.5
2022-09-10T14:56:15.000Z,1005.4
2022-09-10T14:57:31.000Z,1005.4
2022-09-10T14:58:48.000Z,1005.5
2022-09-10T15:00:04.000Z,1005.4
2022-09-10T15:01:20.000Z,1005.5
2022-09-10T15:02:36.000Z,1005.5
2022-09-10T15:03:53.000Z,1005.5
2022-09-10T15:05:09.000Z,1005.5
2022-09-10T15:06:24.000Z,1005.4
2022-09-10T15:07:40.000Z,1005.6
2022-09-10T15:08:57.000Z,1005.5
2022-09-10T15:10:13.000Z,1005.5
2022-09-10T15:11:29.000Z,1005.5
2022-09-10T15:12:45.000Z,1005.5
2022-09-10T15:14:01.000Z,1005.5
2022-09-10T15:15:18.000Z,1005.4
2022-09-10T15:16:34.000Z,1005.5
2022-09-10T15:17:50.000Z,1005.5
2022-09-10T15:19:06.000Z,1005.4
2022-09-10T15:20:23.000Z,1005.5
2022-09-10T15:21:39.000Z,1005.5
2022-09-10T15:22:54.000Z,1005.6
2022-09-10T15:24:10.000Z,1005.6
2022-09-10T15:25:27.000Z,1005.5
2022-09-10T15:26:43.000Z,1005.5
2022-09-10T15:27:59.000Z,1005.5
2022-09-10T15:29:15.000Z,1005.5
2022-09-10T15:30:32.000Z,1005.5
2022-09-10T15:31:48.000Z,1005.6
2022-09-10T15:33:04.000Z,1005.6
2022-09-10T15:34:20.000Z,1005.6
2022-09-10T15:35:36.000Z,1005.7
2022-09-10T15:36:53.000Z,1005.6
2022-09-10T15:38:09.000Z,1005.6
2022-09-10T15:39:24.000Z,1005.6
2022-09-10T15:40:40.000Z,1005.7
2022-09-10T15:41:57.000Z,1005.7
2022-09-10T15:43:13.000Z,1005.6
2022-09-10T15:44:29.000Z,1005.7
2022-09-10T15:45:45.000Z,1005.7
2022-09-10T15:47:02.000Z,1005.6
2022-09-10T15:48:18.000Z,1005.6
2022-09-10T15:49:34.000Z,1005.6
2022-09-10T15:50:50.000Z,1005.6
2022-09-10T15:52:06.000Z,1005.6
2022-09-10T15:53:23.000Z,1005.7
2022-09-10T15:54:39.000Z,1005.7
2022-09-10T15:55:54.000Z,1005.7
2022-09-10T15:57:10.000Z,1005.7